Time;durP1;ratioP1;P1;durP2;ratioP2;P2;SDS_P1;SDS_P2;PMS_P1;PMS_P2;Temp;Humidity;BMP_temperature;BMP_pressure;BME280_temperature;BME280_humidity;BME280_pressure;Samples;Min_cycle;Max_cycle;Signal;HPM_P1;HPM_P2
2021/06/03 00:01:21;;;;;;;3.93;3.53;;;15.90;99.90;;;;;;5022033;28;20897;-91
2021/06/03 00:03:47;;;;;;;4.27;3.93;;;15.90;99.90;;;;;;5022400;28;20619;-90
2021/06/03 00:06:15;;;;;;;6.80;3.50;;;15.90;99.90;;;;;;5025189;28;20634;-91
2021/06/03 00:08:45;;;;;;;3.13;2.90;;;15.90;99.90;;;;;;5029506;28;20646;-91
2021/06/03 00:11:13;;;;;;;4.30;3.90;;;15.90;99.90;;;;;;5028812;28;21231;-90
2021/06/03 00:13:43;;;;;;;2.93;2.70;;;15.90;99.90;;;;;;5027944;28;20630;-91
2021/06/03 00:16:12;;;;;;;5.60;3.47;;;15.80;99.90;;;;;;5025485;28;20641;-90
2021/06/03 00:18:40;;;;;;;5.27;3.40;;;15.80;99.90;;;;;;5026164;28;20634;-91
2021/06/03 00:21:07;;;;;;;3.43;3.13;;;15.80;99.90;;;;;;5026036;28;20808;-91
2021/06/03 00:23:34;;;;;;;3.23;2.73;;;15.90;99.90;;;;;;5025198;28;20638;-88
2021/06/03 00:26:02;;;;;;;3.57;3.27;;;15.80;99.90;;;;;;5026439;28;20654;-90
2021/06/03 00:28:28;;;;;;;3.50;3.20;;;15.80;99.90;;;;;;5014305;28;21489;-88
2021/06/03 00:30:54;;;;;;;5.03;3.90;;;15.80;99.90;;;;;;5020203;28;20662;-89
2021/06/03 00:33:21;;;;;;;5.90;3.80;;;15.70;99.90;;;;;;5019989;28;21239;-89
2021/06/03 00:35:49;;;;;;;4.97;4.27;;;15.70;99.90;;;;;;5019714;28;20631;-90
2021/06/03 00:38:15;;;;;;;4.33;3.53;;;15.70;99.90;;;;;;5020574;28;20629;-90
2021/06/03 00:40:42;;;;;;;3.77;3.47;;;15.70;99.90;;;;;;5020343;28;20678;-90
2021/06/03 00:43:09;;;;;;;4.13;3.83;;;15.70;99.90;;;;;;5020783;28;20619;-91
2021/06/03 00:45:38;;;;;;;4.73;4.27;;;15.50;99.90;;;;;;5022126;28;20642;-89
2021/06/03 00:48:06;;;;;;;5.77;4.17;;;15.50;99.90;;;;;;5015969;28;20670;-89
2021/06/03 00:50:35;;;;;;;4.83;4.43;;;15.40;99.90;;;;;;5021749;28;21220;-88
2021/06/03 00:53:03;;;;;;;4.70;4.30;;;15.30;99.90;;;;;;5020535;28;20635;-88
2021/06/03 00:55:30;;;;;;;4.53;4.00;;;15.20;99.90;;;;;;5023344;28;20611;-89
2021/06/03 00:57:56;;;;;;;5.40;4.90;;;15.20;99.90;;;;;;5022017;28;20626;-89
2021/06/03 01:00:24;;;;;;;5.33;4.83;;;15.10;99.90;;;;;;5022541;28;20693;-89
2021/06/03 01:02:51;;;;;;;7.20;4.57;;;15.10;99.90;;;;;;5023600;28;20627;-88
2021/06/03 01:05:21;;;;;;;6.20;4.37;;;15.10;99.90;;;;;;5023211;28;20635;-88
2021/06/03 01:07:48;;;;;;;5.80;4.47;;;15.00;99.90;;;;;;5022503;28;20714;-87
2021/06/03 01:10:21;;;;;;;6.30;4.50;;;15.00;99.90;;;;;;5028708;28;20712;-89
2021/06/03 01:12:56;;;;;;;4.37;3.97;;;15.00;99.90;;;;;;5027645;28;20630;-88
2021/06/03 01:15:27;;;;;;;4.33;3.93;;;14.90;99.90;;;;;;5024333;28;20739;-89
2021/06/03 01:17:54;;;;;;;4.33;3.93;;;14.80;99.90;;;;;;5025684;28;20688;-89
2021/06/03 01:20:22;;;;;;;4.43;4.03;;;14.80;99.90;;;;;;5024452;28;21296;-88
2021/06/03 01:22:59;;;;;;;5.60;4.60;;;14.70;99.90;;;;;;5028899;28;20625;-88
2021/06/03 01:25:26;;;;;;;3.70;3.40;;;14.60;99.90;;;;;;5024601;28;21164;-90
2021/06/03 01:27:55;;;;;;;4.43;4.03;;;14.60;99.90;;;;;;5027208;28;21208;-91
2021/06/03 01:30:26;;;;;;;4.63;4.30;;;14.60;99.90;;;;;;5025189;28;20717;-89
2021/06/03 01:32:55;;;;;;;4.67;3.97;;;14.60;99.90;;;;;;5025699;28;20653;-89
2021/06/03 01:35:24;;;;;;;5.30;4.80;;;14.60;99.90;;;;;;5025745;28;20719;-89
2021/06/03 01:37:52;;;;;;;5.07;4.37;;;14.60;99.90;;;;;;5023445;28;20635;-89
2021/06/03 01:40:23;;;;;;;5.40;4.90;;;14.50;99.90;;;;;;5032803;28;20683;-89
2021/06/03 01:42:51;;;;;;;4.73;4.33;;;14.40;99.90;;;;;;5029788;28;20634;-89
2021/06/03 01:45:19;;;;;;;7.27;4.53;;;14.40;99.90;;;;;;5028892;28;21316;-88
2021/06/03 01:47:46;;;;;;;4.77;3.93;;;14.40;99.90;;;;;;5030937;28;20611;-89
2021/06/03 01:50:13;;;;;;;5.00;4.47;;;14.40;99.90;;;;;;5025076;28;20650;-89
2021/06/03 01:52:41;;;;;;;5.17;4.77;;;14.30;99.90;;;;;;5028493;28;21239;-91
2021/06/03 01:55:09;;;;;;;5.10;4.57;;;14.30;99.90;;;;;;5023291;28;21387;-89
2021/06/03 01:57:37;;;;;;;4.80;4.40;;;14.30;99.90;;;;;;5022179;28;20623;-90
2021/06/03 02:00:09;;;;;;;5.17;4.67;;;14.30;99.90;;;;;;5021300;28;21248;-90
2021/06/03 02:02:36;;;;;;;4.80;4.50;;;14.40;99.90;;;;;;5022606;28;20670;-87
2021/06/03 02:05:03;;;;;;;4.90;4.50;;;14.30;99.90;;;;;;5024893;28;20630;-89
2021/06/03 02:07:30;;;;;;;4.60;4.30;;;14.30;99.90;;;;;;5028381;28;21244;-89
2021/06/03 02:09:56;;;;;;;7.13;5.40;;;14.30;99.90;;;;;;5025399;28;20735;-89
2021/06/03 02:12:24;;;;;;;8.30;4.80;;;14.20;99.90;;;;;;5024438;28;20643;-90
2021/06/03 02:14:54;;;;;;;5.03;4.63;;;14.20;99.90;;;;;;5029239;28;20634;-89
2021/06/03 02:17:26;;;;;;;5.20;4.87;;;14.20;99.90;;;;;;5022916;28;20631;-88
2021/06/03 02:19:56;;;;;;;6.20;5.00;;;14.20;99.90;;;;;;5027196;28;21205;-88
2021/06/03 02:22:24;;;;;;;4.80;4.50;;;14.20;99.90;;;;;;5024547;28;20625;-88
2021/06/03 02:24:51;;;;;;;5.00;4.43;;;14.20;99.90;;;;;;5025391;28;20623;-89
2021/06/03 02:27:19;;;;;;;5.60;5.17;;;14.30;99.90;;;;;;5020068;28;20630;-89
2021/06/03 02:29:47;;;;;;;5.33;4.83;;;14.20;99.90;;;;;;5023014;28;21253;-89
2021/06/03 02:32:15;;;;;;;5.33;4.93;;;14.20;99.90;;;;;;5024263;28;20685;-88
2021/06/03 02:34:44;;;;;;;6.00;5.13;;;14.30;99.90;;;;;;5024325;28;20626;-88
2021/06/03 02:37:12;;;;;;;4.97;4.53;;;14.40;99.90;;;;;;5021510;28;20635;-89
2021/06/03 02:39:40;;;;;;;4.87;4.47;;;14.40;99.90;;;;;;5019608;28;20700;-88
2021/06/03 02:42:07;;;;;;;4.90;4.40;;;14.40;99.90;;;;;;5024797;28;20654;-87
2021/06/03 02:44:34;;;;;;;4.73;4.43;;;14.40;99.90;;;;;;5024141;28;20650;-88
2021/06/03 02:47:01;;;;;;;4.97;4.67;;;14.50;99.90;;;;;;5024027;28;20638;-88
2021/06/03 02:49:27;;;;;;;5.33;4.93;;;14.50;99.90;;;;;;5021234;28;20661;-88
2021/06/03 02:51:54;;;;;;;5.57;4.90;;;14.50;99.90;;;;;;5022841;28;20630;-88
2021/06/03 02:54:23;;;;;;;5.73;5.23;;;14.60;99.90;;;;;;5022356;28;21189;-87
2021/06/03 02:56:49;;;;;;;5.00;4.60;;;14.60;99.90;;;;;;5021677;28;20599;-89
2021/06/03 02:59:15;;;;;;;4.90;4.40;;;14.60;99.90;;;;;;5022251;28;20731;-87
2021/06/03 03:01:42;;;;;;;4.07;3.80;;;14.60;99.90;;;;;;5022115;28;20658;-89
2021/06/03 03:04:08;;;;;;;7.00;4.80;;;14.70;99.90;;;;;;5032562;28;20710;-89
2021/06/03 03:06:34;;;;;;;5.60;5.10;;;14.70;99.90;;;;;;5030019;28;20646;-88
2021/06/03 03:09:03;;;;;;;5.80;5.23;;;14.60;99.90;;;;;;5029472;28;20729;-88
2021/06/03 03:11:29;;;;;;;5.67;5.17;;;14.70;99.90;;;;;;5049144;28;20648;-89
2021/06/03 03:13:55;;;;;;;7.53;5.30;;;14.70;99.90;;;;;;5041233;28;20683;-88
2021/06/03 03:16:22;;;;;;;5.87;5.37;;;14.80;99.90;;;;;;5042266;28;20643;-89
2021/06/03 03:18:48;;;;;;;4.90;4.50;;;14.70;99.90;;;;;;5036959;28;20726;-87
2021/06/03 03:21:14;;;;;;;5.50;4.80;;;14.70;99.90;;;;;;5026211;28;20684;-87
2021/06/03 03:23:41;;;;;;;5.90;5.40;;;14.70;99.90;;;;;;5026580;28;20639;-88
2021/06/03 03:26:10;;;;;;;7.53;4.70;;;14.80;99.90;;;;;;5022214;28;20627;-89
2021/06/03 03:28:36;;;;;;;5.13;4.73;;;14.80;99.90;;;;;;5022653;28;20674;-88
2021/06/03 03:31:03;;;;;;;6.30;4.20;;;14.80;99.90;;;;;;5026123;28;20658;-87
2021/06/03 03:33:29;;;;;;;5.17;4.77;;;14.70;99.90;;;;;;5025895;28;21262;-87
2021/06/03 03:35:56;;;;;;;5.57;5.07;;;14.70;99.90;;;;;;5025684;28;20668;-87
2021/06/03 03:38:23;;;;;;;5.57;5.07;;;14.80;99.90;;;;;;5026176;28;20631;-88
2021/06/03 03:40:50;;;;;;;5.60;5.20;;;14.80;99.90;;;;;;5030649;28;20663;-87
2021/06/03 03:43:18;;;;;;;5.00;4.60;;;14.90;99.90;;;;;;5036220;28;20635;-87
2021/06/03 03:45:45;;;;;;;5.90;5.40;;;14.90;99.90;;;;;;5039226;28;20734;-88
2021/06/03 03:48:11;;;;;;;5.80;5.20;;;14.90;99.90;;;;;;5026370;28;20618;-88
2021/06/03 03:50:39;;;;;;;5.60;5.10;;;15.00;99.90;;;;;;5026466;28;20626;-88
2021/06/03 03:53:07;;;;;;;4.63;4.30;;;15.00;99.90;;;;;;5022505;28;20705;-87
2021/06/03 03:55:34;;;;;;;4.77;4.37;;;15.00;99.90;;;;;;5026045;28;21058;-88
2021/06/03 03:58:02;;;;;;;4.77;4.37;;;15.00;99.90;;;;;;5027389;28;21316;-88
2021/06/03 04:00:33;;;;;;;5.40;4.90;;;15.00;99.90;;;;;;5024352;28;20647;-90
2021/06/03 04:03:00;;;;;;;4.83;4.43;;;15.00;99.90;;;;;;5025882;28;20663;-86
2021/06/03 04:05:27;;;;;;;5.43;4.27;;;15.00;99.90;;;;;;5034295;28;20630;-86
2021/06/03 04:07:54;;;;;;;5.43;4.93;;;15.00;99.90;;;;;;5032094;28;20654;-89
2021/06/03 04:10:22;;;;;;;4.83;4.43;;;15.10;99.90;;;;;;5023034;28;20631;-87
2021/06/03 04:12:50;;;;;;;4.90;4.40;;;15.20;99.90;;;;;;5031013;28;20649;-88
2021/06/03 04:15:18;;;;;;;5.87;5.30;;;15.20;99.90;;;;;;5025195;28;20630;-86
2021/06/03 04:17:47;;;;;;;5.53;5.10;;;15.30;99.90;;;;;;5024251;28;20643;-87
2021/06/03 04:20:17;;;;;;;5.30;4.93;;;15.30;99.90;;;;;;5025788;28;20625;-87
2021/06/03 04:22:43;;;;;;;7.00;5.13;;;15.30;99.90;;;;;;5022378;28;20694;-88
2021/06/03 04:25:11;;;;;;;6.10;5.50;;;15.30;99.90;;;;;;5023437;28;20662;-88
2021/06/03 04:27:39;;;;;;;7.30;6.30;;;15.40;99.90;;;;;;5027039;28;20634;-89
2021/06/03 04:30:08;;;;;;;6.10;5.50;;;15.40;99.90;;;;;;5024925;28;20662;-88
2021/06/03 04:32:35;;;;;;;5.53;5.10;;;15.50;99.90;;;;;;5022381;28;20663;-88
2021/06/03 04:35:04;;;;;;;7.40;6.80;;;15.50;99.90;;;;;;5028932;28;20633;-89
2021/06/03 04:37:30;;;;;;;8.00;5.20;;;15.50;99.90;;;;;;5023645;28;20653;-89
2021/06/03 04:39:58;;;;;;;7.57;6.00;;;15.50;99.90;;;;;;5028543;28;20638;-88
2021/06/03 04:42:25;;;;;;;6.37;5.87;;;15.50;99.90;;;;;;5031069;28;21046;-89
2021/06/03 04:44:51;;;;;;;6.63;5.73;;;15.60;99.90;;;;;;5024331;28;21046;-88
2021/06/03 04:47:18;;;;;;;6.57;5.97;;;15.60;99.90;;;;;;5029700;28;20611;-88
2021/06/03 04:49:44;;;;;;;6.53;6.00;;;15.70;99.90;;;;;;5029639;28;20623;-88
2021/06/03 04:52:25;;;;;;;6.20;5.70;;;15.70;99.90;;;;;;5029032;28;20792;-87
2021/06/03 04:54:54;;;;;;;5.93;5.47;;;15.80;99.90;;;;;;5029495;28;21476;-87
2021/06/03 04:57:20;;;;;;;6.10;5.40;;;15.80;99.90;;;;;;5030115;28;21038;-89
2021/06/03 04:59:46;;;;;;;5.30;5.00;;;15.90;99.90;;;;;;5028714;28;20682;-87
2021/06/03 05:02:13;;;;;;;6.37;5.63;;;15.90;99.90;;;;;;5030703;28;20666;-89
2021/06/03 05:04:41;;;;;;;5.93;5.50;;;15.90;99.90;;;;;;5029542;28;20631;-89
2021/06/03 05:07:08;;;;;;;5.07;4.67;;;16.10;99.90;;;;;;5030623;28;21243;-88
2021/06/03 05:09:37;;;;;;;5.47;4.97;;;16.10;99.90;;;;;;5033020;28;20614;-87
2021/06/03 05:12:06;;;;;;;5.83;5.23;;;16.20;99.90;;;;;;5032095;28;20646;-87
2021/06/03 05:14:32;;;;;;;6.87;5.70;;;16.30;99.90;;;;;;5031627;28;20615;-87
2021/06/03 05:17:00;;;;;;;5.10;4.70;;;16.20;99.90;;;;;;5028785;28;20614;-87
2021/06/03 05:19:29;;;;;;;5.70;5.30;;;16.20;99.90;;;;;;5032037;28;20630;-88
2021/06/03 05:22:15;;;;;;;5.50;5.00;;;16.30;99.90;;;;;;5033405;28;20686;-88
2021/06/03 05:24:43;;;;;;;6.70;5.87;;;16.40;99.90;;;;;;5032808;28;20630;-88
2021/06/03 05:27:10;;;;;;;8.13;5.60;;;16.40;99.90;;;;;;5031551;28;20626;-88
2021/06/03 05:29:36;;;;;;;8.23;5.63;;;16.40;99.90;;;;;;5029568;28;20636;-88
2021/06/03 05:32:03;;;;;;;6.97;6.37;;;16.50;99.90;;;;;;5035034;28;20647;-88
2021/06/03 05:34:30;;;;;;;5.83;5.30;;;16.60;99.90;;;;;;5031432;28;20630;-88
2021/06/03 05:36:56;;;;;;;5.30;5.00;;;16.50;99.90;;;;;;5044156;28;21037;-88
2021/06/03 05:39:23;;;;;;;5.37;4.97;;;16.60;99.90;;;;;;5052778;28;20650;-88
2021/06/03 05:41:50;;;;;;;11.93;5.90;;;16.60;99.90;;;;;;5049816;28;20662;-88
2021/06/03 05:44:17;;;;;;;5.57;5.17;;;16.60;99.90;;;;;;5052764;28;20710;-88
2021/06/03 05:46:44;;;;;;;5.20;4.70;;;16.60;99.90;;;;;;5049556;28;20653;-87
2021/06/03 05:49:11;;;;;;;6.37;5.80;;;16.70;99.90;;;;;;5049788;28;20623;-88
2021/06/03 05:51:39;;;;;;;6.70;6.10;;;16.80;99.90;;;;;;5048209;28;20652;-86
2021/06/03 05:54:06;;;;;;;6.13;5.63;;;16.90;99.90;;;;;;5047861;28;20694;-87
2021/06/03 05:56:33;;;;;;;6.23;5.53;;;17.00;99.90;;;;;;5052524;28;20626;-88
2021/06/03 05:59:01;;;;;;;6.17;5.47;;;17.00;99.90;;;;;;5050679;28;20602;-86
2021/06/03 06:01:28;;;;;;;6.23;5.73;;;17.10;99.90;;;;;;5050051;28;20648;-87
2021/06/03 06:04:09;;;;;;;6.50;5.47;;;17.20;99.90;;;;;;5053056;28;20689;-86
2021/06/03 06:06:35;;;;;;;6.90;6.30;;;17.30;99.90;;;;;;5043576;28;20639;-88
2021/06/03 06:09:04;;;;;;;7.00;6.40;;;17.40;99.90;;;;;;5033215;28;20631;-86
2021/06/03 06:11:33;;;;;;;5.70;5.30;;;17.80;99.90;;;;;;5018671;28;21012;-88
2021/06/03 06:14:01;;;;;;;5.60;5.20;;;18.20;99.90;;;;;;5026614;28;20622;-86
2021/06/03 06:16:35;;;;;;;6.60;4.63;;;18.50;99.90;;;;;;5024049;28;20716;-85
2021/06/03 06:19:03;;;;;;;6.30;4.77;;;18.70;99.90;;;;;;5025061;28;20780;-87
2021/06/03 06:21:29;;;;;;;7.50;5.27;;;18.70;99.90;;;;;;5022329;28;20710;-86
2021/06/03 06:23:56;;;;;;;5.50;5.00;;;18.60;99.90;;;;;;5029683;28;20722;-86
2021/06/03 06:26:24;;;;;;;4.93;4.60;;;18.80;99.90;;;;;;5040313;28;20660;-87
2021/06/03 06:28:51;;;;;;;5.60;4.80;;;18.90;99.90;;;;;;5042393;28;20627;-88
2021/06/03 06:31:19;;;;;;;5.60;5.10;;;18.90;99.90;;;;;;5040340;28;20634;-86
2021/06/03 06:33:47;;;;;;;5.27;4.77;;;18.90;99.90;;;;;;5044218;28;20640;-86
2021/06/03 06:36:14;;;;;;;6.60;5.40;;;18.80;99.90;;;;;;5047396;28;20620;-85
2021/06/03 06:38:42;;;;;;;4.80;4.30;;;18.80;99.90;;;;;;5044366;28;20643;-85
2021/06/03 06:41:11;;;;;;;5.90;4.20;;;18.70;99.90;;;;;;5049444;28;20670;-85
2021/06/03 06:43:39;;;;;;;5.47;5.00;;;18.70;99.90;;;;;;5049044;28;20627;-87
2021/06/03 06:46:06;;;;;;;4.97;4.57;;;18.70;99.90;;;;;;5044958;28;20639;-87
2021/06/03 06:48:35;;;;;;;5.30;4.80;;;18.60;99.90;;;;;;5034368;28;20632;-87
2021/06/03 06:51:04;;;;;;;5.47;5.07;;;18.60;99.90;;;;;;5040650;28;20623;-86
2021/06/03 06:53:30;;;;;;;5.73;5.13;;;18.60;99.90;;;;;;5039886;28;20631;-86
2021/06/03 06:55:57;;;;;;;6.13;4.70;;;18.60;99.90;;;;;;5044949;28;20627;-86
2021/06/03 06:58:23;;;;;;;5.20;4.80;;;18.60;99.90;;;;;;5040495;28;20651;-87
2021/06/03 07:00:51;;;;;;;6.73;4.87;;;18.70;99.90;;;;;;5034370;28;20691;-88
2021/06/03 07:03:18;;;;;;;4.70;4.30;;;18.50;99.90;;;;;;5035041;28;20709;-88
2021/06/03 07:05:46;;;;;;;5.93;5.23;;;18.50;99.90;;;;;;5027385;28;20649;-89
2021/06/03 07:08:13;;;;;;;5.83;4.70;;;18.60;99.90;;;;;;5025723;28;21603;-88
2021/06/03 07:10:39;;;;;;;5.07;4.00;;;18.70;99.90;;;;;;5027739;28;20615;-88
2021/06/03 07:13:06;;;;;;;5.20;4.73;;;18.70;99.90;;;;;;5028075;28;20658;-88
2021/06/03 07:15:32;;;;;;;4.77;4.37;;;18.80;99.90;;;;;;5026058;28;21041;-88
2021/06/03 07:17:59;;;;;;;5.83;5.17;;;18.90;99.90;;;;;;5022793;28;20666;-87
2021/06/03 07:20:26;;;;;;;7.17;5.20;;;18.80;99.90;;;;;;5020255;28;20623;-87
2021/06/03 07:23:00;;;;;;;5.27;4.80;;;18.80;99.90;;;;;;5020026;28;20643;-86
2021/06/03 07:25:27;;;;;;;5.50;4.90;;;19.00;99.90;;;;;;5022913;28;20657;-87
2021/06/03 07:27:54;;;;;;;5.40;4.97;;;19.00;99.90;;;;;;5016998;28;21249;-87
2021/06/03 07:30:23;;;;;;;5.87;5.30;;;19.10;99.90;;;;;;5020451;28;20650;-88
2021/06/03 07:32:50;;;;;;;6.13;4.90;;;19.00;99.90;;;;;;5018128;28;20975;-87
2021/06/03 07:35:20;;;;;;;4.93;4.50;;;19.20;99.90;;;;;;5019342;28;20635;-87
2021/06/03 07:37:48;;;;;;;5.33;4.93;;;19.20;99.90;;;;;;5017015;28;20674;-87
2021/06/03 07:40:20;;;;;;;7.87;4.80;;;19.30;99.90;;;;;;5021853;28;20639;-86
2021/06/03 07:42:48;;;;;;;5.00;4.60;;;19.40;99.90;;;;;;5021595;28;20665;-87
2021/06/03 07:45:16;;;;;;;4.60;4.20;;;19.50;99.90;;;;;;5024938;28;20624;-91
2021/06/03 07:47:43;;;;;;;5.87;5.37;;;19.40;99.90;;;;;;5020832;28;21250;-88
2021/06/03 07:50:12;;;;;;;5.60;5.20;;;19.50;99.90;;;;;;5019675;28;20618;-90
2021/06/03 07:52:41;;;;;;;6.20;4.63;;;19.60;99.90;;;;;;5025255;28;20615;-89
2021/06/03 07:55:10;;;;;;;4.67;4.37;;;19.60;99.90;;;;;;5020915;28;20629;-90
2021/06/03 07:57:41;;;;;;;5.57;4.90;;;19.60;99.90;;;;;;5021983;28;20721;-89
2021/06/03 08:00:11;;;;;;;10.10;5.00;;;19.70;99.90;;;;;;5016601;28;21263;-88
2021/06/03 08:02:38;;;;;;;5.50;5.00;;;19.80;99.90;;;;;;5016499;28;21190;-89
2021/06/03 08:05:06;;;;;;;5.60;5.10;;;19.80;99.90;;;;;;5022873;28;20670;-90
2021/06/03 08:07:33;;;;;;;4.60;4.20;;;19.80;99.90;;;;;;5023641;28;20708;-88
2021/06/03 08:09:59;;;;;;;5.23;4.73;;;19.80;99.90;;;;;;5025898;28;20641;-89
2021/06/03 08:12:26;;;;;;;7.37;4.53;;;19.90;99.90;;;;;;5026738;28;20645;-88
2021/06/03 08:14:54;;;;;;;4.53;4.20;;;20.00;99.90;;;;;;5023638;28;20623;-89
2021/06/03 08:17:20;;;;;;;4.77;4.37;;;20.00;99.90;;;;;;5040211;28;20622;-90
2021/06/03 08:19:47;;;;;;;6.20;4.70;;;20.20;99.90;;;;;;5045731;28;20576;-90
2021/06/03 08:22:22;;;;;;;5.10;4.70;;;20.40;99.90;;;;;;5026893;28;20622;-91
2021/06/03 08:24:49;;;;;;;6.87;4.60;;;20.80;99.90;;;;;;5025781;28;20622;-90
2021/06/03 08:27:15;;;;;;;4.97;4.30;;;21.00;99.90;;;;;;5027137;28;20635;-90
2021/06/03 08:29:41;;;;;;;4.50;4.10;;;21.10;99.90;;;;;;5027236;28;20668;-89
2021/06/03 08:32:09;;;;;;;4.67;4.30;;;21.20;99.90;;;;;;5029299;28;20645;-90
2021/06/03 08:34:36;;;;;;;5.33;4.90;;;21.10;99.90;;;;;;5027343;28;20637;-89
2021/06/03 08:37:04;;;;;;;4.87;4.33;;;21.00;99.90;;;;;;5026503;28;20677;-90
2021/06/03 08:39:31;;;;;;;8.97;4.70;;;21.20;99.90;;;;;;5024195;28;20646;-89
2021/06/03 08:41:58;;;;;;;5.43;5.03;;;21.50;99.90;;;;;;5021607;28;21261;-90
2021/06/03 08:44:28;;;;;;;4.17;3.87;;;21.50;99.90;;;;;;5015696;28;20660;-88
2021/06/03 08:46:54;;;;;;;4.90;4.50;;;21.70;99.90;;;;;;5021743;28;20618;-89
2021/06/03 08:49:22;;;;;;;3.73;3.40;;;22.00;99.90;;;;;;5024270;28;20607;-87
2021/06/03 08:51:49;;;;;;;4.40;4.00;;;22.40;99.90;;;;;;5025425;28;20952;-87
2021/06/03 08:54:16;;;;;;;4.80;3.47;;;22.40;99.90;;;;;;5026636;28;20651;-89
2021/06/03 08:56:42;;;;;;;3.30;3.10;;;22.50;99.90;;;;;;5025060;28;20606;-89
2021/06/03 08:59:09;;;;;;;3.60;3.13;;;22.50;99.90;;;;;;5017141;28;20627;-88
2021/06/03 09:01:39;;;;;;;4.00;2.83;;;22.70;99.90;;;;;;5020137;28;20662;-88
2021/06/03 09:04:06;;;;;;;3.53;3.23;;;22.70;99.90;;;;;;5021505;28;20659;-89
2021/06/03 09:06:34;;;;;;;3.20;2.90;;;22.90;99.90;;;;;;5022507;28;20626;-88
2021/06/03 09:09:01;;;;;;;3.90;3.60;;;22.90;99.90;;;;;;5020948;28;20661;-90
2021/06/03 09:11:29;;;;;;;4.40;3.10;;;22.70;99.90;;;;;;5023923;28;20711;-88
2021/06/03 09:13:57;;;;;;;3.07;2.83;;;22.80;99.90;;;;;;5023279;28;20662;-88
2021/06/03 09:16:26;;;;;;;3.07;2.77;;;23.20;99.90;;;;;;5024358;28;20982;-88
2021/06/03 09:18:54;;;;;;;3.50;2.90;;;23.50;99.90;;;;;;5017210;28;20689;-88
2021/06/03 09:21:22;;;;;;;3.30;3.00;;;23.70;99.90;;;;;;5024062;28;20702;-89
2021/06/03 09:23:56;;;;;;;3.67;2.80;;;24.00;99.90;;;;;;5018559;28;21047;-88
2021/06/03 09:26:25;;;;;;;3.27;3.07;;;24.10;99.90;;;;;;5021950;28;21195;-90
2021/06/03 09:28:53;;;;;;;5.20;2.70;;;24.30;99.10;;;;;;5018982;28;20701;-89
2021/06/03 09:31:21;;;;;;;3.57;2.63;;;24.40;98.00;;;;;;5023197;28;20614;-90
2021/06/03 09:33:51;;;;;;;3.53;3.23;;;24.60;97.50;;;;;;5023006;28;20670;-90
2021/06/03 09:36:20;;;;;;;3.00;2.70;;;24.70;97.90;;;;;;5025992;28;20707;-90
2021/06/03 09:39:00;;;;;;;2.93;2.50;;;25.10;97.30;;;;;;5029356;28;20626;-89
2021/06/03 09:41:29;;;;;;;4.93;3.10;;;25.10;96.30;;;;;;5026952;28;21292;-88
2021/06/03 09:44:04;;;;;;;5.97;2.97;;;25.10;96.30;;;;;;5024585;28;20654;-91
2021/06/03 09:46:35;;;;;;;4.23;3.20;;;25.50;96.00;;;;;;5029743;28;20629;-89
2021/06/03 09:49:03;;;;;;;3.67;2.67;;;25.60;95.50;;;;;;5027512;28;20611;-90
2021/06/03 09:51:31;;;;;;;2.50;2.33;;;25.90;95.30;;;;;;5032253;28;20649;-90
2021/06/03 09:54:01;;;;;;;3.00;2.20;;;25.60;94.00;;;;;;5027213;28;20627;-90
2021/06/03 09:56:30;;;;;;;2.40;2.20;;;25.60;94.10;;;;;;5025013;28;20627;-91
2021/06/03 09:58:58;;;;;;;2.50;2.40;;;25.40;95.00;;;;;;5021556;28;20721;-88
2021/06/03 10:01:49;;;;;;;2.80;2.60;;;26.00;94.50;;;;;;5026223;28;20679;-89
2021/06/03 10:04:17;;;;;;;4.20;2.47;;;26.20;93.80;;;;;;5024639;28;20745;-90
2021/06/03 10:07:09;;;;;;;2.90;2.63;;;26.50;94.50;;;;;;5026501;28;20629;-89
2021/06/03 10:09:45;;;;;;;3.43;3.13;;;26.30;93.40;;;;;;5014079;28;20644;-89
2021/06/03 10:12:33;;;;;;;3.00;2.60;;;26.30;93.30;;;;;;5032125;28;21315;-88
2021/06/03 10:15:02;;;;;;;2.87;2.67;;;26.10;93.80;;;;;;5042164;28;20687;-88
2021/06/03 10:17:30;;;;;;;2.80;2.60;;;26.60;93.10;;;;;;5046835;28;20614;-88
2021/06/03 10:19:58;;;;;;;3.53;2.40;;;26.30;92.80;;;;;;5046052;28;20721;-90
2021/06/03 10:22:26;;;;;;;4.23;2.80;;;26.30;93.10;;;;;;5044081;28;20693;-88
2021/06/03 10:25:10;;;;;;;2.70;2.50;;;26.00;93.60;;;;;;5027971;28;20626;-89
2021/06/03 10:27:39;;;;;;;4.03;2.60;;;26.50;94.20;;;;;;5017956;28;20617;-90
2021/06/03 10:30:10;;;;;;;3.80;3.17;;;26.80;93.00;;;;;;5032016;28;20848;-88
2021/06/03 10:32:38;;;;;;;3.43;2.33;;;27.10;92.20;;;;;;5037366;28;20749;-89
2021/06/03 10:35:08;;;;;;;2.70;2.50;;;27.10;92.10;;;;;;5034435;28;20619;-88
2021/06/03 10:37:35;;;;;;;3.03;2.60;;;27.40;93.40;;;;;;5028864;28;20635;-89
2021/06/03 10:40:04;;;;;;;3.10;2.60;;;27.90;91.30;;;;;;5024695;28;20704;-88
2021/06/03 10:42:33;;;;;;;3.00;2.43;;;28.10;92.00;;;;;;5026376;28;20686;-90
2021/06/03 10:45:02;;;;;;;3.07;2.43;;;28.00;90.60;;;;;;5026113;28;20924;-90
2021/06/03 10:47:29;;;;;;;3.33;2.80;;;27.40;91.50;;;;;;5018445;28;20620;-90
2021/06/03 10:49:58;;;;;;;3.30;2.57;;;27.00;92.10;;;;;;5023131;28;20609;-90
2021/06/03 10:52:26;;;;;;;3.20;3.00;;;27.30;91.50;;;;;;5022073;28;21269;-91
2021/06/03 10:54:54;;;;;;;3.90;2.67;;;27.70;90.50;;;;;;5025299;28;20197;-91
2021/06/03 10:57:23;;;;;;;2.80;2.50;;;28.30;90.80;;;;;;5027413;28;20715;-90
2021/06/03 10:59:54;;;;;;;3.77;3.20;;;28.50;90.30;;;;;;5017247;28;20599;-88
2021/06/03 11:02:21;;;;;;;4.30;2.13;;;28.10;88.90;;;;;;5022307;28;20651;-90
2021/06/03 11:04:47;;;;;;;2.80;2.60;;;28.60;90.20;;;;;;5021963;28;20630;-91
2021/06/03 11:07:19;;;;;;;2.60;2.40;;;29.00;87.80;;;;;;5021830;28;21071;-90
2021/06/03 11:09:45;;;;;;;2.57;2.37;;;29.10;88.10;;;;;;5020536;28;20627;-89
2021/06/03 11:12:20;;;;;;;2.70;2.50;;;28.80;88.10;;;;;;5017634;28;21265;-88
2021/06/03 11:15:08;;;;;;;3.13;2.83;;;28.40;88.60;;;;;;5018816;28;22489;-88
2021/06/03 11:17:55;;;;;;;3.60;2.30;;;28.80;87.90;;;;;;5020757;28;20982;-89
2021/06/03 11:20:38;;;;;;;4.23;2.37;;;29.20;87.60;;;;;;5023682;28;20682;-90
2021/06/03 11:23:45;;;;;;;3.10;2.73;;;29.60;85.90;;;;;;5021375;28;20701;-90
2021/06/03 11:26:46;;;;;;;2.57;2.37;;;29.90;82.60;;;;;;5019629;28;20988;-88
2021/06/03 11:29:15;;;;;;;2.70;2.40;;;29.90;82.70;;;;;;5016214;28;20637;-88
2021/06/03 11:31:44;;;;;;;2.60;2.40;;;29.00;82.90;;;;;;5019062;28;20736;-89
2021/06/03 11:34:12;;;;;;;2.73;1.87;;;29.00;83.50;;;;;;5021477;28;20622;-86
2021/06/03 11:36:40;;;;;;;3.20;2.43;;;29.30;82.60;;;;;;5018975;28;20670;-87
2021/06/03 11:39:27;;;;;;;5.80;2.73;;;28.70;85.60;;;;;;5020144;28;20635;-86
2021/06/03 11:42:26;;;;;;;2.40;2.20;;;28.20;85.20;;;;;;5018830;28;20686;-86
2021/06/03 11:45:17;;;;;;;3.27;3.07;;;27.80;87.20;;;;;;5023063;28;20988;-89
2021/06/03 11:48:20;;;;;;;2.93;2.73;;;28.10;87.10;;;;;;5020310;28;20682;-90
2021/06/03 11:51:12;;;;;;;3.20;2.43;;;28.10;86.60;;;;;;5005315;28;20670;-87
2021/06/03 11:53:51;;;;;;;2.30;2.10;;;27.90;84.80;;;;;;5018172;28;20660;-88
2021/06/03 11:56:20;;;;;;;5.73;2.27;;;27.30;88.60;;;;;;5027953;28;20672;-89
2021/06/03 11:58:52;;;;;;;3.43;1.83;;;27.10;89.30;;;;;;5024983;28;20657;-90
2021/06/03 12:01:34;;;;;;;2.70;1.70;;;27.00;90.00;;;;;;5020837;28;20693;-89
2021/06/03 12:04:22;;;;;;;1.67;1.53;;;26.60;90.20;;;;;;5019187;28;20765;-89
2021/06/03 12:06:52;;;;;;;1.97;1.60;;;26.10;90.10;;;;;;5010710;28;20643;-89
2021/06/03 12:09:28;;;;;;;1.57;1.30;;;26.00;90.00;;;;;;5019608;28;21130;-89
2021/06/03 12:11:55;;;;;;;1.63;1.53;;;25.70;89.90;;;;;;5019133;28;21759;-89
2021/06/03 12:14:24;;;;;;;1.93;1.73;;;25.70;90.50;;;;;;5020845;28;20676;-90
2021/06/03 12:16:54;;;;;;;2.70;1.30;;;25.80;90.50;;;;;;5018995;28;20623;-90
2021/06/03 12:19:25;;;;;;;1.70;1.40;;;26.00;90.40;;;;;;5020160;28;21255;-91
2021/06/03 12:21:55;;;;;;;2.97;2.43;;;27.10;89.70;;;;;;5022528;28;20690;-90
2021/06/03 12:24:40;;;;;;;1.57;1.47;;;27.40;88.30;;;;;;5022251;28;20599;-90
2021/06/03 12:27:18;;;;;;;1.87;1.30;;;27.10;86.90;;;;;;5020251;28;20623;-89
2021/06/03 12:29:44;;;;;;;1.97;1.50;;;26.50;88.20;;;;;;5017970;28;20684;-90
2021/06/03 12:32:12;;;;;;;1.20;1.10;;;26.20;89.00;;;;;;5022995;28;20638;-89
2021/06/03 12:34:41;;;;;;;1.33;1.23;;;25.80;89.10;;;;;;5023703;28;20629;-90
2021/06/03 12:37:24;;;;;;;2.40;1.30;;;25.80;88.60;;;;;;5020175;28;20635;-88
2021/06/03 12:39:51;;;;;;;1.43;1.33;;;25.40;87.70;;;;;;5018629;28;20637;-90
2021/06/03 12:42:19;;;;;;;1.90;1.13;;;25.30;87.80;;;;;;5012667;28;20667;-89
2021/06/03 12:44:56;;;;;;;1.93;1.43;;;25.10;90.00;;;;;;5023572;28;20619;-88
2021/06/03 12:47:23;;;;;;;3.10;1.67;;;24.90;90.30;;;;;;5023936;28;20626;-89
2021/06/03 12:50:02;;;;;;;2.23;1.40;;;25.10;90.70;;;;;;5018921;28;20673;-90
2021/06/03 12:52:29;;;;;;;4.00;2.20;;;24.80;91.80;;;;;;5023355;28;21086;-89
2021/06/03 12:54:58;;;;;;;3.63;2.73;;;24.40;98.00;;;;;;5026231;28;20666;-89
2021/06/03 12:57:26;;;;;;;3.33;2.70;;;24.00;99.90;;;;;;5019967;28;20665;-89
2021/06/03 12:59:54;;;;;;;4.50;3.10;;;23.70;99.90;;;;;;5022227;28;20711;-89